createdAt,value
2023-05-05T00:02:20.123Z,98858.56
2023-05-05T00:04:48.101Z,98837.91
2023-05-05T00:07:16.028Z,98857.66
2023-05-05T00:09:44.660Z,98846.50
2023-05-05T00:12:12.604Z,98847.78
2023-05-05T00:14:40.593Z,98848.31
2023-05-05T00:17:08.609Z,98843.81
2023-05-05T00:19:38.224Z,98843.56
2023-05-05T00:22:06.193Z,98843.00
2023-05-05T00:24:34.225Z,98838.25
2023-05-05T00:27:03.549Z,98836.94
2023-05-05T00:29:31.721Z,98843.75
2023-05-05T00:31:59.654Z,98832.69
2023-05-05T00:34:27.633Z,98836.50
2023-05-05T00:36:56.980Z,98832.50
2023-05-05T00:39:25.436Z,98812.03
2023-05-05T00:41:53.418Z,98827.13
2023-05-05T00:44:37.385Z,98825.91
2023-05-05T00:47:05.167Z,98836.72
2023-05-05T00:49:34.238Z,98832.34
2023-05-05T00:52:04.834Z,98829.69
2023-05-05T00:54:32.882Z,98836.31
2023-05-05T00:57:02.250Z,98823.44
2023-05-05T00:59:31.745Z,98825.28
2023-05-05T01:01:59.972Z,98850.28
2023-05-05T01:04:28.041Z,98852.25
2023-05-05T01:07:09.171Z,98845.63
2023-05-05T01:09:43.085Z,98857.75
2023-05-05T01:12:19.624Z,98856.28
2023-05-05T01:14:54.459Z,98857.66
2023-05-05T01:17:30.222Z,98858.13
2023-05-05T01:20:04.378Z,98848.09
2023-05-05T01:22:40.083Z,98863.53
2023-05-05T01:25:36.540Z,98858.25
2023-05-05T01:28:26.497Z,98851.56
2023-05-05T01:31:19.561Z,98868.19
2023-05-05T01:33:51.073Z,98868.06
2023-05-05T01:36:24.707Z,98873.31
2023-05-05T01:38:58.236Z,98857.75
2023-05-05T01:41:30.888Z,98856.34
2023-05-05T01:44:02.669Z,98861.50
2023-05-05T01:46:31.684Z,98857.50
2023-05-05T01:49:01.454Z,98858.56
2023-05-05T01:51:30.650Z,98856.13
2023-05-05T01:54:01.083Z,98841.44
2023-05-05T01:56:31.363Z,98869.91
2023-05-05T01:59:02.328Z,98870.53
2023-05-05T02:01:31.660Z,98866.75
2023-05-05T02:04:03.217Z,98860.69
2023-05-05T02:06:33.294Z,98869.06
2023-05-05T02:09:02.385Z,98869.00
2023-05-05T02:11:31.206Z,98863.16
2023-05-05T02:14:01.577Z,98878.31
2023-05-05T02:16:31.320Z,98873.44
2023-05-05T02:19:05.148Z,98874.59
2023-05-05T02:21:33.829Z,98886.38
2023-05-05T02:24:02.459Z,98882.53
2023-05-05T02:26:34.324Z,98885.19
2023-05-05T02:29:07.521Z,98883.28
2023-05-05T02:31:40.457Z,98884.34
2023-05-05T02:34:11.011Z,98882.31
2023-05-05T02:36:42.645Z,98895.03
2023-05-05T02:39:15.833Z,98896.34
2023-05-05T02:41:46.297Z,98889.06
2023-05-05T02:44:16.038Z,98892.56
2023-05-05T02:46:44.512Z,98877.34
2023-05-05T02:49:13.919Z,98897.03
2023-05-05T02:51:41.951Z,98886.41
2023-05-05T02:54:10.159Z,98900.88
2023-05-05T02:56:42.154Z,98887.56
2023-05-05T02:59:17.218Z,98892.06
2023-05-05T03:01:58.083Z,98893.41
2023-05-05T03:04:33.048Z,98886.28
2023-05-05T03:07:08.364Z,98874.72
2023-05-05T03:09:41.403Z,98880.16
2023-05-05T03:12:12.297Z,98891.22
2023-05-05T03:14:43.400Z,98875.53
2023-05-05T03:17:13.585Z,98872.38
2023-05-05T03:19:45.432Z,98884.63
2023-05-05T03:22:13.888Z,98879.97
2023-05-05T03:24:42.042Z,98879.53
2023-05-05T03:27:10.225Z,98884.34
2023-05-05T03:29:38.332Z,98883.09
2023-05-05T03:32:07.316Z,98889.47
2023-05-05T03:34:37.409Z,98885.78
2023-05-05T03:37:06.726Z,98880.88
2023-05-05T03:39:34.663Z,98881.19
2023-05-05T03:42:02.601Z,98881.56
2023-05-05T03:44:30.634Z,98875.72
2023-05-05T03:46:58.811Z,98865.44
2023-05-05T03:49:26.839Z,98880.97
2023-05-05T03:51:54.746Z,98875.63
2023-05-05T03:54:24.079Z,98881.34
2023-05-05T03:56:52.026Z,98881.78
2023-05-05T03:59:19.976Z,98876.56
2023-05-05T04:01:49.862Z,98883.31
2023-05-05T04:04:17.950Z,98859.25
2023-05-05T04:06:46.041Z,98881.34
2023-05-05T04:09:14.659Z,98875.41
2023-05-05T04:11:44.015Z,98889.81
2023-05-05T04:14:12.693Z,98889.00
2023-05-05T04:16:40.960Z,98894.09
2023-05-05T04:19:09.595Z,98885.16
2023-05-05T04:21:37.619Z,98897.75
2023-05-05T04:24:06.267Z,98901.38
2023-05-05T04:26:34.219Z,98902.06
2023-05-05T04:29:03.549Z,98913.53
2023-05-05T04:31:32.185Z,98901.31
2023-05-05T04:34:00.221Z,98919.09
2023-05-05T04:36:28.395Z,98928.09
2023-05-05T04:38:56.403Z,98876.53
2023-05-05T04:41:24.402Z,98935.06
2023-05-05T04:43:52.332Z,98905.75
2023-05-05T04:46:21.926Z,98934.50
2023-05-05T04:48:49.898Z,98926.06
2023-05-05T04:51:17.919Z,98928.19
2023-05-05T04:53:46.215Z,98851.94
2023-05-05T04:56:14.131Z,98914.59
2023-05-05T04:58:42.080Z,98902.34
2023-05-05T05:01:10.020Z,98908.69
2023-05-05T05:03:39.441Z,98907.25
2023-05-05T05:06:07.708Z,98913.34
2023-05-05T05:08:35.677Z,98903.91
2023-05-05T05:11:03.642Z,98885.72
2023-05-05T05:13:31.656Z,98897.31
2023-05-05T05:15:59.853Z,98894.34
2023-05-05T05:18:27.908Z,98908.97
2023-05-05T05:20:57.394Z,98905.56
2023-05-05T05:23:25.547Z,98903.06
2023-05-05T05:25:53.621Z,98905.88
2023-05-05T05:28:21.620Z,98908.41
2023-05-05T05:30:49.642Z,98879.69
2023-05-05T05:33:17.568Z,98907.28
2023-05-05T05:35:45.545Z,98896.28
2023-05-05T05:38:14.946Z,98890.50
2023-05-05T05:40:42.933Z,98898.78
2023-05-05T05:43:10.896Z,98873.50
2023-05-05T05:45:38.882Z,98900.31
2023-05-05T05:48:07.155Z,98912.00
2023-05-05T05:50:36.008Z,98904.94
2023-05-05T05:53:03.948Z,98910.94
2023-05-05T05:55:33.283Z,98910.75
2023-05-05T05:58:01.397Z,98917.50
2023-05-05T06:00:29.392Z,98929.47
2023-05-05T06:02:57.393Z,98933.25
2023-05-05T06:05:25.423Z,98926.50
2023-05-05T06:07:53.371Z,98937.59
2023-05-05T06:12:54.921Z,98933.78
2023-05-05T06:15:22.942Z,98938.06
2023-05-05T06:17:51.280Z,98940.69
2023-05-05T06:20:19.484Z,98945.28
2023-05-05T06:22:47.522Z,98949.44
2023-05-05T06:25:15.700Z,98950.41
2023-05-05T06:27:43.655Z,98941.09
2023-05-05T06:30:14.834Z,98956.13
2023-05-05T06:32:42.920Z,98950.97
2023-05-05T06:35:11.337Z,98961.53
2023-05-05T06:37:39.654Z,98962.75
2023-05-05T06:40:09.588Z,98964.50
2023-05-05T06:42:37.706Z,98960.19
2023-05-05T06:45:06.243Z,98963.34
2023-05-05T06:47:35.980Z,98966.72
2023-05-05T06:50:03.979Z,98971.31
2023-05-05T06:52:31.895Z,98964.63
2023-05-05T06:54:59.908Z,98955.41
2023-05-05T06:57:27.858Z,98954.91
2023-05-05T06:59:55.914Z,98958.19
2023-05-05T07:02:25.950Z,98959.53
2023-05-05T07:04:56.699Z,98960.41
2023-05-05T07:07:24.668Z,98958.69
2023-05-05T07:09:52.610Z,98965.38
2023-05-05T07:12:20.581Z,98965.56
2023-05-05T07:14:48.551Z,98958.66
2023-05-05T07:17:16.707Z,98958.94
2023-05-05T07:19:44.618Z,98957.88
2023-05-05T07:22:13.935Z,98936.00
2023-05-05T07:24:41.876Z,98947.47
2023-05-05T07:27:09.909Z,98952.25
2023-05-05T07:29:37.805Z,98949.13
2023-05-05T07:32:06.375Z,98945.16
2023-05-05T07:34:34.710Z,98956.16
2023-05-05T07:37:04.121Z,98949.94
2023-05-05T07:39:34.107Z,98945.13
2023-05-05T07:42:02.556Z,98947.81
2023-05-05T07:44:30.682Z,98944.31
2023-05-05T07:46:58.677Z,98953.13
2023-05-05T07:49:26.879Z,98948.69
2023-05-05T07:51:55.489Z,98942.25
2023-05-05T07:54:23.494Z,98938.03
2023-05-05T07:56:52.822Z,98913.94
2023-05-05T07:59:20.834Z,98917.38
2023-05-05T08:01:48.726Z,98937.44
2023-05-05T08:04:16.712Z,98941.53
2023-05-05T08:06:44.659Z,98936.25
2023-05-05T08:09:12.834Z,98936.28
2023-05-05T08:11:40.959Z,98943.44
2023-05-05T08:14:10.297Z,98936.38
2023-05-05T08:16:38.213Z,98943.13
2023-05-05T08:19:12.076Z,98938.06
2023-05-05T08:21:49.488Z,98940.22
2023-05-05T08:24:17.575Z,98938.22
2023-05-05T08:26:45.515Z,98939.25
2023-05-05T08:29:14.876Z,98943.13
2023-05-05T08:31:42.930Z,98938.09
2023-05-05T08:34:10.930Z,98932.69
2023-05-05T08:36:38.933Z,98935.03
2023-05-05T08:39:07.296Z,98926.09
2023-05-05T08:41:35.565Z,98913.81
2023-05-05T08:44:03.575Z,98926.25
2023-05-05T08:46:33.352Z,98920.31
2023-05-05T08:49:03.859Z,98914.53
2023-05-05T08:51:37.766Z,98917.00
2023-05-05T08:54:08.124Z,98912.88
2023-05-05T08:56:41.480Z,98912.06
2023-05-05T08:59:11.237Z,98914.88
2023-05-05T09:01:43.122Z,98911.16
2023-05-05T09:04:11.882Z,98897.81
2023-05-05T09:06:39.848Z,98920.88
2023-05-05T09:09:08.584Z,98910.59
2023-05-05T09:11:37.709Z,98906.41
2023-05-05T09:14:05.641Z,98910.22
2023-05-05T09:16:33.619Z,98898.75
2023-05-05T09:19:06.388Z,98908.00
2023-05-05T09:21:34.327Z,98902.22
2023-05-05T09:24:10.092Z,98889.31
2023-05-05T09:26:40.011Z,98892.53
2023-05-05T09:31:37.880Z,98904.28
2023-05-05T09:34:17.541Z,98898.94
2023-05-05T09:36:47.943Z,98901.13
2023-05-05T09:39:18.741Z,98899.97
2023-05-05T09:41:47.339Z,98898.13
2023-05-05T09:44:17.050Z,98888.03
2023-05-05T09:46:52.271Z,98888.25
2023-05-05T09:49:25.610Z,98879.00
2023-05-05T09:51:54.259Z,98861.28
2023-05-05T09:54:26.550Z,98869.34
2023-05-05T09:56:54.666Z,98859.94
2023-05-05T09:59:22.722Z,98863.66
2023-05-05T10:01:51.342Z,98872.03
2023-05-05T10:04:28.667Z,98865.19
2023-05-05T10:06:57.753Z,98860.91
2023-05-05T10:09:26.461Z,98861.72
2023-05-05T10:11:55.146Z,98867.44
2023-05-05T10:14:25.437Z,98867.28
2023-05-05T10:16:54.994Z,98860.97
2023-05-05T10:19:25.729Z,98860.78
2023-05-05T10:22:00.593Z,98852.44
2023-05-05T10:24:35.603Z,98794.44
2023-05-05T10:27:09.154Z,98855.69
2023-05-05T10:29:47.009Z,98842.63
2023-05-05T10:32:51.922Z,98853.13
2023-05-05T10:35:18.005Z,98848.91
2023-05-05T10:37:48.799Z,98847.81
2023-05-05T10:40:17.769Z,98838.66
2023-05-05T10:42:46.020Z,98828.50
2023-05-05T10:45:13.996Z,98834.50
2023-05-05T10:47:42.115Z,98831.31
2023-05-05T10:50:17.600Z,98830.25
2023-05-05T10:52:57.151Z,98832.41
2023-05-05T10:55:38.948Z,98804.22
2023-05-05T10:58:06.960Z,98819.50
2023-05-05T11:00:50.397Z,98818.50
2023-05-05T11:03:22.568Z,98820.13
2023-05-05T11:06:13.743Z,98818.09
2023-05-05T11:08:44.682Z,98802.88
2023-05-05T11:11:14.038Z,98801.81
2023-05-05T11:13:42.324Z,98791.59
2023-05-05T11:16:48.088Z,98786.91
2023-05-05T11:19:55.992Z,98781.97
2023-05-05T11:22:23.964Z,98778.56
2023-05-05T11:24:53.411Z,98779.28
2023-05-05T11:27:22.249Z,98772.13
2023-05-05T11:30:17.802Z,98782.63
2023-05-05T11:33:24.266Z,98770.31
2023-05-05T11:35:58.726Z,98764.59
2023-05-05T11:38:31.112Z,98761.50
2023-05-05T11:41:06.919Z,98759.81
2023-05-05T11:43:34.990Z,98753.38
2023-05-05T11:46:12.274Z,98744.75
2023-05-05T11:48:47.120Z,98749.16
2023-05-05T11:51:16.276Z,98750.00
2023-05-05T11:53:45.131Z,98739.94
2023-05-05T11:56:19.002Z,98741.00
2023-05-05T11:58:47.201Z,98742.72
2023-05-05T12:01:15.622Z,98727.69
2023-05-05T12:03:45.655Z,98726.56
2023-05-05T12:06:14.479Z,98728.78
2023-05-05T12:08:42.692Z,98733.91
2023-05-05T12:11:11.648Z,98714.28
2023-05-05T12:13:41.658Z,98719.06
2023-05-05T12:16:11.150Z,98723.53
2023-05-05T12:18:39.314Z,98722.34
2023-05-05T12:21:16.065Z,98717.25
2023-05-05T12:23:44.026Z,98716.63
2023-05-05T12:26:25.992Z,98709.88
2023-05-05T12:28:55.716Z,98710.06
2023-05-05T12:31:23.740Z,98695.09
2023-05-05T12:33:53.840Z,98698.78
2023-05-05T12:36:21.835Z,98695.56
2023-05-05T12:38:50.867Z,98676.44
2023-05-05T12:41:21.298Z,98674.38
2023-05-05T12:43:49.410Z,98646.69
2023-05-05T12:46:18.728Z,98657.97
2023-05-05T12:48:48.284Z,98631.53
2023-05-05T12:51:23.130Z,98655.53
2023-05-05T12:54:03.139Z,98650.25
2023-05-05T12:56:36.122Z,98647.22
2023-05-05T12:59:05.879Z,98643.72
2023-05-05T13:01:35.754Z,98638.31
2023-05-05T13:04:08.196Z,98612.09
2023-05-05T13:06:36.232Z,98629.06
2023-05-05T13:09:04.170Z,98625.78
2023-05-05T13:11:35.776Z,98616.31
2023-05-05T13:14:03.846Z,98608.97
2023-05-05T13:16:32.014Z,98598.44
2023-05-05T13:19:01.323Z,98593.41
2023-05-05T13:21:29.261Z,98588.97
2023-05-05T13:24:05.096Z,98589.41
2023-05-05T13:26:45.178Z,98605.75
2023-05-05T13:29:13.186Z,98593.22
2023-05-05T13:31:41.673Z,98610.56
2023-05-05T13:34:11.198Z,98610.84
2023-05-05T13:36:39.286Z,98615.69
2023-05-05T13:39:07.383Z,98611.06
2023-05-05T13:41:35.381Z,98609.13
2023-05-05T13:44:03.339Z,98604.66
2023-05-05T13:46:31.364Z,98593.63
2023-05-05T13:48:59.330Z,98592.97
2023-05-05T13:51:28.607Z,98586.69
2023-05-05T13:53:56.549Z,98575.78
2023-05-05T13:56:26.677Z,98577.41
2023-05-05T13:58:54.677Z,98575.56
2023-05-05T14:01:22.782Z,98566.38
2023-05-05T14:03:50.827Z,98565.75
2023-05-05T14:06:18.836Z,98564.69
2023-05-05T14:08:48.191Z,98564.94
2023-05-05T14:11:18.144Z,98571.03
2023-05-05T14:13:47.654Z,98575.00
2023-05-05T14:16:15.853Z,98581.44
2023-05-05T14:18:44.105Z,98594.13
2023-05-05T14:21:12.268Z,98639.66
2023-05-05T14:23:40.513Z,98669.56
2023-05-05T14:26:10.006Z,98633.59
2023-05-05T14:28:37.935Z,98690.72
2023-05-05T14:31:06.220Z,98807.56
2023-05-05T14:33:34.142Z,98877.06
2023-05-05T14:36:02.316Z,98878.16
2023-05-05T14:38:30.291Z,98894.13
2023-05-05T14:40:58.291Z,98918.19
2023-05-05T14:43:27.741Z,98934.47
2023-05-05T14:45:58.368Z,98930.06
2023-05-05T14:48:26.393Z,98922.31
2023-05-05T14:50:54.326Z,98911.19
2023-05-05T14:53:22.227Z,98914.75
2023-05-05T14:55:50.155Z,98899.75
2023-05-05T14:58:22.417Z,98902.09
2023-05-05T15:00:52.934Z,98894.56
2023-05-05T15:03:20.969Z,98875.22
2023-05-05T15:05:48.965Z,98876.91
2023-05-05T15:08:18.729Z,98871.34
2023-05-05T15:10:46.723Z,98871.91
2023-05-05T15:13:15.173Z,98868.56
2023-05-05T15:15:43.280Z,98869.91
2023-05-05T15:18:12.657Z,98846.78
2023-05-05T15:20:40.605Z,98856.34
2023-05-05T15:23:08.545Z,98864.56
2023-05-05T15:25:36.580Z,98852.91
2023-05-05T15:28:04.580Z,98855.34
2023-05-05T15:30:32.584Z,98848.91
2023-05-05T15:33:00.658Z,98832.13
2023-05-05T15:35:30.011Z,98814.44
2023-05-05T15:37:58.106Z,98806.16
2023-05-05T15:40:26.260Z,98823.09
2023-05-05T15:42:54.188Z,98829.16
2023-05-05T15:45:22.164Z,98837.91
2023-05-05T15:47:50.523Z,98832.19
2023-05-05T15:50:18.533Z,98831.00
2023-05-05T15:52:49.806Z,98825.41
2023-05-05T15:55:18.035Z,98819.88
2023-05-05T15:57:45.954Z,98804.25
2023-05-05T16:00:15.300Z,98805.13
2023-05-05T16:02:43.277Z,98793.75
2023-05-05T16:05:11.543Z,98794.59
2023-05-05T16:07:39.496Z,98792.91
2023-05-05T16:10:10.429Z,98805.13
2023-05-05T16:12:38.410Z,98800.00
2023-05-05T16:15:07.674Z,98796.13
2023-05-05T16:17:36.050Z,98779.88
2023-05-05T16:20:04.220Z,98788.84
2023-05-05T16:22:32.178Z,98783.75
2023-05-05T16:25:00.196Z,98788.31
2023-05-05T16:27:29.543Z,98788.63
2023-05-05T16:29:59.562Z,98784.06
2023-05-05T16:32:27.877Z,98788.44
2023-05-05T16:34:55.925Z,98781.97
2023-05-05T16:37:23.963Z,98786.16
2023-05-05T16:39:51.835Z,98786.00
2023-05-05T16:42:20.299Z,98789.84
2023-05-05T16:44:49.630Z,98788.13
2023-05-05T16:47:17.586Z,98799.28
2023-05-05T16:49:45.518Z,98791.41
2023-05-05T16:52:13.449Z,98789.00
2023-05-05T16:54:41.701Z,98786.13
2023-05-05T16:57:09.625Z,98780.59
2023-05-05T16:59:37.592Z,98784.41
2023-05-05T17:02:07.267Z,98779.53
2023-05-05T17:04:35.323Z,98761.22
2023-05-05T17:07:03.264Z,98773.31
2023-05-05T17:09:31.225Z,98772.84
2023-05-05T17:11:59.177Z,98763.03
2023-05-05T17:14:27.490Z,98774.47
2023-05-05T17:16:55.547Z,98773.28
2023-05-05T17:19:24.892Z,98772.38
2023-05-05T17:21:52.813Z,98757.81
2023-05-05T17:24:20.868Z,98749.06
2023-05-05T17:26:48.843Z,98767.72
2023-05-05T17:29:19.867Z,98775.78
2023-05-05T17:31:48.032Z,98762.34
2023-05-05T17:34:16.021Z,98767.88
2023-05-05T17:36:45.378Z,98767.19
2023-05-05T17:39:13.758Z,98764.34
2023-05-05T17:41:42.110Z,98775.97
2023-05-05T17:44:10.041Z,98771.28
2023-05-05T17:46:38.376Z,98793.34
2023-05-05T17:49:06.321Z,98793.19
2023-05-05T17:51:34.353Z,98785.28
2023-05-05T17:54:03.691Z,98794.91
2023-05-05T17:56:31.662Z,98793.00
2023-05-05T17:58:59.711Z,98798.03
2023-05-05T18:01:28.071Z,98793.19
2023-05-05T18:03:56.055Z,98793.19
2023-05-05T18:06:24.053Z,98795.00
2023-05-05T18:08:52.015Z,98781.53
2023-05-05T18:11:23.865Z,98779.13
2023-05-05T18:13:51.790Z,98798.00
2023-05-05T18:16:19.751Z,98796.13
2023-05-05T18:18:47.796Z,98800.53
2023-05-05T18:21:15.750Z,98804.56
2023-05-05T18:23:43.800Z,98802.19
2023-05-05T18:26:11.760Z,98797.31
2023-05-05T18:28:41.140Z,98797.13
2023-05-05T18:31:09.121Z,98808.97
2023-05-05T18:33:37.099Z,98801.22
2023-05-05T18:36:05.538Z,98810.13
2023-05-05T18:38:33.578Z,98807.56
2023-05-05T18:41:01.605Z,98809.81
2023-05-05T18:43:29.538Z,98800.16
2023-05-05T18:45:58.935Z,98811.75
2023-05-05T18:48:27.627Z,98811.22
2023-05-05T18:50:55.592Z,98808.66
2023-05-05T18:53:23.510Z,98815.97
2023-05-05T18:55:51.703Z,98816.91
2023-05-05T18:58:20.009Z,98823.97
2023-05-05T19:00:48.055Z,98828.44
2023-05-05T19:03:17.460Z,98812.03
2023-05-05T19:05:45.425Z,98824.16
2023-05-05T19:08:13.375Z,98829.59
2023-05-05T19:10:41.655Z,98830.63
2023-05-05T19:13:10.904Z,98831.50
2023-05-05T19:15:39.058Z,98841.38
2023-05-05T19:18:07.233Z,98829.81
2023-05-05T19:20:38.616Z,98842.88
2023-05-05T19:23:07.198Z,98840.63
2023-05-05T19:25:35.493Z,98853.44
2023-05-05T19:28:03.504Z,98846.38
2023-05-05T19:30:31.521Z,98857.25
2023-05-05T19:32:59.551Z,98850.47
2023-05-05T19:35:27.841Z,98847.69
2023-05-05T19:37:57.445Z,98850.19
2023-05-05T19:40:25.550Z,98850.84
2023-05-05T19:42:53.478Z,98866.03
2023-05-05T19:45:21.455Z,98860.88
2023-05-05T19:47:49.440Z,98834.78
2023-05-05T19:50:17.502Z,98868.22
2023-05-05T19:52:45.533Z,98874.88
2023-05-05T19:55:14.867Z,98882.06
2023-05-05T19:57:42.847Z,98872.09
2023-05-05T20:00:12.037Z,98875.53
2023-05-05T20:02:40.187Z,98876.63
2023-05-05T20:05:08.773Z,98877.97
2023-05-05T20:07:36.729Z,98880.91
2023-05-05T20:10:05.012Z,98868.28
2023-05-05T20:12:34.450Z,98887.13
2023-05-05T20:15:03.201Z,98883.69
2023-05-05T20:17:31.182Z,98868.44
2023-05-05T20:19:59.135Z,98879.13
2023-05-05T20:22:27.074Z,98883.72
2023-05-05T20:24:55.020Z,98876.91
2023-05-05T20:27:23.213Z,98879.19
2023-05-05T20:29:52.664Z,98885.16
2023-05-05T20:32:20.988Z,98884.00
2023-05-05T20:34:49.094Z,98878.34
2023-05-05T20:37:17.089Z,98889.19
2023-05-05T20:39:45.074Z,98893.53
2023-05-05T20:42:13.127Z,98894.38
2023-05-05T20:44:41.319Z,98889.84
2023-05-05T20:47:10.938Z,98901.47
2023-05-05T20:49:38.873Z,98902.59
2023-05-05T20:52:06.924Z,98900.44
2023-05-05T20:54:34.855Z,98901.13
2023-05-05T20:57:03.135Z,98872.44
2023-05-05T20:59:31.064Z,98911.38
2023-05-05T21:01:59.033Z,98901.19
2023-05-05T21:04:28.418Z,98910.38
2023-05-05T21:06:57.440Z,98910.38
2023-05-05T21:09:26.081Z,98898.78
2023-05-05T21:11:54.166Z,98900.47
2023-05-05T21:14:22.128Z,98907.38
2023-05-05T21:16:50.226Z,98904.13
2023-05-05T21:19:18.201Z,98903.47
2023-05-05T21:21:47.478Z,98908.00
2023-05-05T21:24:15.661Z,98900.38
2023-05-05T21:26:44.310Z,98897.84
2023-05-05T21:29:12.419Z,98900.00
2023-05-05T21:31:41.508Z,98900.91
2023-05-05T21:34:09.469Z,98904.38
2023-05-05T21:36:38.709Z,98894.25
2023-05-05T21:39:08.051Z,98897.38
2023-05-05T21:41:36.001Z,98904.94
2023-05-05T21:44:03.953Z,98895.88
2023-05-05T21:46:31.883Z,98898.25
2023-05-05T21:48:59.863Z,98893.13
2023-05-05T21:51:27.813Z,98896.38
2023-05-05T21:53:55.778Z,98889.69
2023-05-05T21:56:25.101Z,98881.53
2023-05-05T21:58:53.011Z,98888.72
2023-05-05T22:01:21.164Z,98889.25
2023-05-05T22:03:49.639Z,98886.03
2023-05-05T22:06:18.557Z,98879.13
2023-05-05T22:08:46.437Z,98880.00
2023-05-05T22:11:14.901Z,98874.22
2023-05-05T22:13:44.204Z,98870.84
2023-05-05T22:16:13.097Z,98871.00
2023-05-05T22:18:41.026Z,98876.88
2023-05-05T22:21:08.962Z,98867.72
2023-05-05T22:23:37.596Z,98867.50
2023-05-05T22:26:05.838Z,98831.53
2023-05-05T22:28:33.799Z,98867.56
2023-05-05T22:31:03.266Z,98845.19
2023-05-05T22:33:31.404Z,98876.84
2023-05-05T22:35:59.327Z,98881.66
2023-05-05T22:38:27.365Z,98881.09
2023-05-05T22:40:55.430Z,98887.53
2023-05-05T22:43:23.358Z,98881.34
2023-05-05T22:45:51.399Z,98880.94
2023-05-05T22:48:21.646Z,98878.13
2023-05-05T22:50:49.584Z,98855.25
2023-05-05T22:53:17.551Z,98879.44
2023-05-05T22:55:45.713Z,98872.94
2023-05-05T22:58:13.676Z,98852.28
2023-05-05T23:00:41.623Z,98875.63
2023-05-05T23:03:09.831Z,98879.03
2023-05-05T23:05:39.162Z,98878.59
2023-05-05T23:08:07.110Z,98885.22
2023-05-05T23:10:35.070Z,98873.53
2023-05-05T23:13:02.955Z,98872.56
2023-05-05T23:15:31.233Z,98868.88
2023-05-05T23:17:59.205Z,98875.66
2023-05-05T23:20:27.263Z,98872.94
2023-05-05T23:22:56.767Z,98866.75
2023-05-05T23:25:24.732Z,98870.56
2023-05-05T23:27:52.943Z,98850.75
2023-05-05T23:30:21.031Z,98861.28
2023-05-05T23:32:48.975Z,98856.38
2023-05-05T23:35:16.991Z,98857.81
2023-05-05T23:37:44.868Z,98848.91
2023-05-05T23:40:14.311Z,98848.09
2023-05-05T23:42:42.347Z,98848.50
2023-05-05T23:45:11.704Z,98856.09
2023-05-05T23:47:40.066Z,98858.34
2023-05-05T23:50:09.411Z,98856.09
2023-05-05T23:52:37.364Z,98860.72
2023-05-05T23:55:06.186Z,98864.25
2023-05-05T23:57:35.977Z,98872.44
